createdAt,value
2018-09-10T00:00:06.387Z,19.21
2018-09-10T00:01:05.809Z,19.23
2018-09-10T00:02:05.835Z,19.25
2018-09-10T00:03:05.855Z,19.24
2018-09-10T00:04:05.880Z,19.16
2018-09-10T00:05:05.910Z,19.27
2018-09-10T00:06:05.928Z,19.20
2018-09-10T00:07:05.953Z,19.30
2018-09-10T00:08:05.985Z,19.20
2018-09-10T00:09:05.999Z,19.23
2018-09-10T00:10:06.024Z,19.28
2018-09-10T00:11:06.053Z,19.16
2018-09-10T00:12:06.077Z,19.06
2018-09-10T00:13:06.098Z,19.16
2018-09-10T00:14:06.123Z,19.13
2018-09-10T00:15:06.143Z,19.07
2018-09-10T00:16:06.167Z,19.09
2018-09-10T00:17:06.192Z,19.15
2018-09-10T00:18:06.216Z,19.06
2018-09-10T00:19:06.246Z,19.10
2018-09-10T00:20:06.274Z,19.07
2018-09-10T00:21:06.287Z,19.13
2018-09-10T00:22:06.313Z,19.12
2018-09-10T00:23:06.337Z,19.10
2018-09-10T00:24:06.369Z,19.06
2018-09-10T00:25:06.385Z,19.09
2018-09-10T00:26:06.411Z,19.06
2018-09-10T00:27:06.437Z,19.12
2018-09-10T00:28:06.461Z,19.12
2018-09-10T00:29:06.486Z,19.05
2018-09-10T00:30:06.499Z,19.07
2018-09-10T00:31:06.535Z,19.10
2018-09-10T00:32:06.557Z,19.10
2018-09-10T00:33:06.582Z,19.10
2018-09-10T00:34:06.605Z,19.07
2018-09-10T00:35:06.633Z,18.97
2018-09-10T00:36:06.653Z,18.97
2018-09-10T00:37:06.677Z,19.06
2018-09-10T00:38:06.699Z,19.01
2018-09-10T00:39:06.725Z,18.97
2018-09-10T00:40:06.749Z,18.94
2018-09-10T00:41:06.771Z,19.05
2018-09-10T00:42:06.792Z,18.91
2018-09-10T00:43:06.821Z,18.94
2018-09-10T00:44:06.845Z,19.05
2018-09-10T00:45:06.866Z,19.06
2018-09-10T00:46:06.893Z,18.94
2018-09-10T00:47:06.921Z,19.02
2018-09-10T00:48:06.938Z,18.97
2018-09-10T00:49:06.958Z,19.05
2018-09-10T00:50:06.991Z,19.09
2018-09-10T00:51:07.013Z,19.12
2018-09-10T00:52:07.037Z,19.17
2018-09-10T00:53:07.056Z,19.09
2018-09-10T00:54:07.090Z,19.10
2018-09-10T00:55:07.113Z,19.15
2018-09-10T00:56:07.135Z,19.07
2018-09-10T00:57:07.157Z,19.06
2018-09-10T00:58:07.189Z,19.05
2018-09-10T00:59:07.207Z,18.94
2018-09-10T01:00:07.233Z,18.96
2018-09-10T01:01:07.249Z,19.06
2018-09-10T01:02:07.275Z,19.06
2018-09-10T01:03:07.301Z,18.93
2018-09-10T01:04:07.323Z,18.91
2018-09-10T01:05:07.347Z,18.94
2018-09-10T01:06:07.371Z,18.87
2018-09-10T01:07:07.395Z,18.91
2018-09-10T01:08:07.415Z,18.93
2018-09-10T01:09:07.441Z,18.91
2018-09-10T01:10:07.465Z,18.94
2018-09-10T01:11:07.494Z,18.90
2018-09-10T01:12:07.516Z,18.97
2018-09-10T01:13:07.539Z,18.94
2018-09-10T01:14:07.569Z,18.87
2018-09-10T01:15:07.587Z,18.87
2018-09-10T01:16:07.613Z,18.82
2018-09-10T01:17:07.631Z,18.83
2018-09-10T01:18:07.671Z,18.86
2018-09-10T01:19:07.683Z,18.90
2018-09-10T01:20:07.709Z,18.89
2018-09-10T01:21:07.732Z,18.89
2018-09-10T01:22:07.755Z,18.72
2018-09-10T01:23:07.780Z,18.75
2018-09-10T01:24:07.805Z,18.72
2018-09-10T01:25:07.828Z,18.62
2018-09-10T01:26:07.853Z,18.60
2018-09-10T01:27:07.870Z,18.64
2018-09-10T01:28:07.904Z,18.64
2018-09-10T01:29:07.919Z,18.59
2018-09-10T01:30:07.944Z,18.47
2018-09-10T01:31:07.970Z,18.60
2018-09-10T01:32:07.992Z,18.65
2018-09-10T01:33:08.021Z,18.68
2018-09-10T01:34:08.047Z,18.65
2018-09-10T01:35:08.065Z,18.64
2018-09-10T01:36:08.089Z,18.56
2018-09-10T01:37:08.118Z,18.46
2018-09-10T01:38:08.136Z,18.50
2018-09-10T01:39:08.161Z,18.49
2018-09-10T01:40:08.187Z,18.50
2018-09-10T01:41:08.203Z,18.46
2018-09-10T01:42:08.234Z,18.50
2018-09-10T01:43:08.262Z,18.50
2018-09-10T01:44:08.277Z,18.38
2018-09-10T01:45:08.307Z,18.41
2018-09-10T01:46:08.322Z,18.38
2018-09-10T01:47:08.353Z,18.31
2018-09-10T01:48:08.380Z,18.38
2018-09-10T01:49:08.397Z,18.34
2018-09-10T01:50:08.418Z,18.23
2018-09-10T01:51:08.443Z,18.39
2018-09-10T01:52:08.478Z,18.29
2018-09-10T01:53:08.493Z,18.35
2018-09-10T01:54:08.517Z,18.34
2018-09-10T01:55:08.542Z,18.39
2018-09-10T01:56:08.564Z,18.26
2018-09-10T01:57:08.587Z,18.25
2018-09-10T01:58:08.655Z,18.31
2018-09-10T01:59:08.632Z,18.31
2018-09-10T02:00:08.658Z,18.35
2018-09-10T02:01:08.676Z,18.36
2018-09-10T02:02:08.704Z,18.29
2018-09-10T02:03:08.732Z,18.39
2018-09-10T02:04:08.757Z,18.35
2018-09-10T02:05:08.773Z,18.36
2018-09-10T02:06:08.801Z,18.32
2018-09-10T02:07:08.824Z,18.34
2018-09-10T02:08:08.847Z,18.39
2018-09-10T02:09:08.872Z,18.32
2018-09-10T02:10:08.893Z,18.36
2018-09-10T02:11:08.927Z,18.36
2018-09-10T02:12:08.943Z,18.35
2018-09-10T02:13:08.964Z,18.41
2018-09-10T02:14:08.990Z,18.38
2018-09-10T02:15:09.015Z,18.36
2018-09-10T02:16:09.040Z,18.42
2018-09-10T02:17:09.101Z,18.42
2018-09-10T02:18:09.083Z,18.38
2018-09-10T02:19:09.108Z,18.35
2018-09-10T02:20:09.178Z,18.34
2018-09-10T02:21:09.151Z,18.41
2018-09-10T02:22:09.177Z,18.35
2018-09-10T02:23:09.203Z,18.42
2018-09-10T02:24:09.223Z,18.42
2018-09-10T02:25:09.249Z,18.49
2018-09-10T02:26:09.274Z,18.46
2018-09-10T02:27:09.302Z,18.50
2018-09-10T02:28:09.324Z,18.51
2018-09-10T02:29:09.373Z,18.54
2018-09-10T02:30:09.383Z,18.46
2018-09-10T02:31:09.393Z,18.62
2018-09-10T02:32:09.415Z,18.54
2018-09-10T02:33:09.440Z,18.54
2018-09-10T02:34:09.459Z,18.54
2018-09-10T02:35:09.489Z,18.65
2018-09-10T02:36:09.516Z,18.66
2018-09-10T02:37:09.532Z,18.68
2018-09-10T02:38:09.563Z,18.69
2018-09-10T02:39:09.591Z,18.57
2018-09-10T02:40:09.603Z,18.60
2018-09-10T02:41:09.627Z,18.68
2018-09-10T02:42:09.657Z,18.65
2018-09-10T02:43:09.679Z,18.56
2018-09-10T02:44:09.699Z,18.59
2018-09-10T02:45:09.721Z,18.51
2018-09-10T02:46:09.753Z,18.44
2018-09-10T02:47:09.776Z,18.49
2018-09-10T02:48:09.795Z,18.44
2018-09-10T02:49:09.819Z,18.42
2018-09-10T02:50:09.841Z,18.38
2018-09-10T02:51:09.866Z,18.39
2018-09-10T02:52:09.888Z,18.38
2018-09-10T02:53:09.922Z,18.38
2018-09-10T02:54:09.940Z,18.41
2018-09-10T02:55:09.975Z,18.36
2018-09-10T02:56:09.981Z,18.32
2018-09-10T02:57:10.013Z,18.32
2018-09-10T02:58:10.035Z,18.38
2018-09-10T02:59:10.056Z,18.36
2018-09-10T03:00:10.095Z,18.34
2018-09-10T03:01:10.104Z,18.36
2018-09-10T03:02:10.132Z,18.44
2018-09-10T03:03:10.151Z,18.41
2018-09-10T03:04:10.177Z,18.39
2018-09-10T03:05:10.199Z,18.36
2018-09-10T03:06:10.226Z,18.36
2018-09-10T03:07:10.247Z,18.36
2018-09-10T03:08:10.266Z,18.34
2018-09-10T03:09:10.293Z,18.36
2018-09-10T03:10:10.317Z,18.31
2018-09-10T03:11:10.342Z,18.35
2018-09-10T03:12:10.371Z,18.39
2018-09-10T03:13:10.389Z,18.26
2018-09-10T03:14:10.405Z,18.28
2018-09-10T03:15:10.433Z,18.23
2018-09-10T03:16:10.455Z,18.25
2018-09-10T03:17:10.483Z,18.21
2018-09-10T03:18:10.507Z,18.36
2018-09-10T03:19:10.527Z,18.23
2018-09-10T03:20:10.551Z,18.28
2018-09-10T03:21:10.573Z,18.31
2018-09-10T03:22:10.595Z,18.32
2018-09-10T03:23:10.624Z,18.25
2018-09-10T03:24:10.671Z,18.35
2018-09-10T03:25:10.665Z,18.32
2018-09-10T03:26:10.690Z,18.31
2018-09-10T03:27:10.712Z,18.26
2018-09-10T03:28:10.748Z,18.35
2018-09-10T03:29:10.761Z,18.26
2018-09-10T03:30:10.812Z,18.26
2018-09-10T03:31:10.814Z,18.36
2018-09-10T03:32:10.834Z,18.28
2018-09-10T03:33:10.858Z,18.32
2018-09-10T03:34:10.889Z,18.36
2018-09-10T03:35:10.902Z,18.35
2018-09-10T03:36:10.932Z,18.17
2018-09-10T03:37:10.956Z,18.34
2018-09-10T03:38:10.976Z,18.41
2018-09-10T03:39:10.999Z,18.42
2018-09-10T03:40:11.021Z,18.36
2018-09-10T03:41:11.048Z,18.42
2018-09-10T03:42:11.072Z,18.44
2018-09-10T03:43:11.111Z,18.46
2018-09-10T03:44:11.123Z,18.51
2018-09-10T03:45:11.145Z,18.49
2018-09-10T03:46:11.160Z,18.46
2018-09-10T03:47:11.200Z,18.46
2018-09-10T03:48:11.210Z,18.42
2018-09-10T03:49:11.235Z,18.41
2018-09-10T03:50:11.258Z,18.50
2018-09-10T03:51:11.277Z,18.51
2018-09-10T03:52:11.304Z,18.50
2018-09-10T03:53:11.332Z,18.42
2018-09-10T03:54:11.348Z,18.49
2018-09-10T03:55:11.378Z,18.44
2018-09-10T03:56:11.399Z,18.53
2018-09-10T03:57:11.424Z,18.39
2018-09-10T03:58:11.444Z,18.39
2018-09-10T03:59:11.468Z,18.44
2018-09-10T04:00:11.497Z,18.47
2018-09-10T04:01:11.528Z,18.46
2018-09-10T04:02:11.540Z,18.44
2018-09-10T04:03:11.564Z,18.42
2018-09-10T04:04:11.588Z,18.39
2018-09-10T04:05:11.606Z,18.36
2018-09-10T04:06:11.638Z,18.31
2018-09-10T04:07:11.661Z,18.28
2018-09-10T04:08:11.684Z,18.31
2018-09-10T04:09:11.702Z,18.32
2018-09-10T04:10:11.730Z,18.36
2018-09-10T04:11:11.754Z,18.32
2018-09-10T04:12:11.776Z,18.29
2018-09-10T04:13:11.799Z,18.26
2018-09-10T04:14:11.824Z,18.34
2018-09-10T04:15:11.855Z,18.26
2018-09-10T04:16:11.872Z,18.36
2018-09-10T04:17:12.012Z,18.39
2018-09-10T04:18:11.920Z,18.39
2018-09-10T04:19:11.944Z,18.28
2018-09-10T04:20:11.961Z,18.34
2018-09-10T04:21:11.989Z,18.36
2018-09-10T04:22:12.016Z,18.39
2018-09-10T04:23:12.037Z,18.31
2018-09-10T04:24:12.060Z,18.36
2018-09-10T04:25:12.078Z,18.36
2018-09-10T04:26:12.112Z,18.39
2018-09-10T04:27:12.128Z,18.36
2018-09-10T04:28:12.150Z,18.36
2018-09-10T04:29:12.176Z,18.32
2018-09-10T04:30:12.198Z,18.36
2018-09-10T04:31:12.220Z,18.32
2018-09-10T04:32:12.247Z,18.29
2018-09-10T04:33:12.267Z,18.36
2018-09-10T04:34:12.290Z,18.31
2018-09-10T04:35:12.322Z,18.32
2018-09-10T04:36:12.447Z,18.38
2018-09-10T04:37:12.361Z,18.36
2018-09-10T04:38:12.387Z,18.41
2018-09-10T04:39:12.416Z,18.36
2018-09-10T04:40:12.435Z,18.42
2018-09-10T04:41:12.456Z,18.42
2018-09-10T04:42:12.488Z,18.35
2018-09-10T04:43:12.509Z,18.36
2018-09-10T04:44:12.529Z,18.39
2018-09-10T04:45:12.560Z,18.39
2018-09-10T04:46:12.582Z,18.41
2018-09-10T04:47:12.605Z,18.41
2018-09-10T04:48:12.624Z,18.42
2018-09-10T04:49:12.646Z,18.49
2018-09-10T04:50:12.679Z,18.42
2018-09-10T04:51:12.693Z,18.42
2018-09-10T04:52:12.722Z,18.44
2018-09-10T04:53:12.746Z,18.46
2018-09-10T04:54:12.766Z,18.38
2018-09-10T04:55:12.794Z,18.38
2018-09-10T04:56:12.812Z,18.46
2018-09-10T04:57:12.842Z,18.42
2018-09-10T04:58:12.949Z,18.44
2018-09-10T04:59:12.885Z,18.47
2018-09-10T05:00:12.909Z,18.47
2018-09-10T05:01:12.924Z,18.54
2018-09-10T05:02:12.957Z,18.46
2018-09-10T05:03:12.975Z,18.53
2018-09-10T05:04:13.002Z,18.50
2018-09-10T05:05:13.020Z,18.50
2018-09-10T05:06:13.048Z,18.53
2018-09-10T05:07:13.072Z,18.53
2018-09-10T05:08:13.101Z,18.49
2018-09-10T05:09:13.120Z,18.49
2018-09-10T05:10:13.141Z,18.47
2018-09-10T05:11:13.164Z,18.49
2018-09-10T05:12:13.190Z,18.46
2018-09-10T05:13:13.213Z,18.51
2018-09-10T05:14:13.235Z,18.51
2018-09-10T05:15:13.256Z,18.50
2018-09-10T05:16:13.281Z,18.50
2018-09-10T05:17:13.319Z,18.51
2018-09-10T05:18:13.331Z,18.53
2018-09-10T05:19:13.360Z,18.59
2018-09-10T05:20:13.382Z,18.64
2018-09-10T05:21:13.401Z,18.57
2018-09-10T05:22:13.424Z,18.69
2018-09-10T05:23:13.451Z,18.59
2018-09-10T05:24:13.478Z,18.66
2018-09-10T05:25:13.500Z,18.69
2018-09-10T05:26:13.519Z,18.74
2018-09-10T05:27:13.539Z,18.78
2018-09-10T05:28:13.637Z,18.76
2018-09-10T05:29:13.590Z,18.84
2018-09-10T05:30:13.614Z,18.82
2018-09-10T05:31:13.641Z,18.90
2018-09-10T05:32:13.660Z,18.91
2018-09-10T05:33:13.719Z,18.89
2018-09-10T05:34:13.758Z,18.97
2018-09-10T05:35:13.741Z,18.91
2018-09-10T05:36:13.757Z,18.94
2018-09-10T05:37:13.781Z,19.02
2018-09-10T05:38:13.806Z,19.01
2018-09-10T05:39:13.833Z,19.02
2018-09-10T05:40:13.855Z,19.01
2018-09-10T05:41:13.875Z,18.97
2018-09-10T05:42:13.902Z,19.06
2018-09-10T05:43:13.927Z,19.09
2018-09-10T05:44:13.949Z,19.15
2018-09-10T05:45:14.023Z,19.07
2018-09-10T05:46:13.995Z,19.17
2018-09-10T05:47:14.028Z,19.23
2018-09-10T05:48:14.044Z,19.24
2018-09-10T05:49:14.069Z,19.35
2018-09-10T05:50:14.094Z,19.40
2018-09-10T05:51:14.116Z,19.42
2018-09-10T05:52:14.139Z,19.55
2018-09-10T05:53:14.165Z,19.53
2018-09-10T05:54:14.189Z,19.65
2018-09-10T05:55:14.216Z,19.64
2018-09-10T05:56:14.234Z,19.67
2018-09-10T05:57:14.260Z,19.79
2018-09-10T05:58:14.284Z,19.83
2018-09-10T05:59:14.327Z,19.87
2018-09-10T06:00:14.341Z,19.86
2018-09-10T06:01:14.355Z,19.89
2018-09-10T06:02:14.383Z,19.85
2018-09-10T06:03:14.404Z,19.90
2018-09-10T06:04:14.435Z,19.80
2018-09-10T06:05:14.455Z,19.87
2018-09-10T06:06:14.487Z,19.85
2018-09-10T06:07:14.502Z,19.97
2018-09-10T06:08:14.531Z,19.86
2018-09-10T06:09:14.551Z,19.92
2018-09-10T06:10:14.577Z,19.85
2018-09-10T06:11:14.599Z,19.86
2018-09-10T06:12:14.628Z,19.90
2018-09-10T06:13:14.656Z,19.87
2018-09-10T06:14:14.674Z,19.86
2018-09-10T06:15:14.705Z,19.83
2018-09-10T06:16:14.732Z,19.79
2018-09-10T06:17:14.745Z,19.83
2018-09-10T06:18:14.768Z,19.85
2018-09-10T06:19:14.796Z,19.86
2018-09-10T06:20:14.828Z,19.86
2018-09-10T06:21:14.844Z,19.87
2018-09-10T06:22:14.870Z,19.87
2018-09-10T06:23:14.894Z,19.94
2018-09-10T06:24:14.923Z,19.97
2018-09-10T06:25:14.954Z,20.05
2018-09-10T06:26:14.967Z,20.00
2018-09-10T06:27:14.996Z,19.95
2018-09-10T06:28:15.014Z,19.94
2018-09-10T06:29:15.041Z,19.86
2018-09-10T06:30:15.090Z,19.90
2018-09-10T06:31:15.085Z,19.95
2018-09-10T06:32:15.113Z,19.87
2018-09-10T06:33:15.145Z,19.85
2018-09-10T06:34:15.217Z,19.89
2018-09-10T06:35:15.188Z,19.80
2018-09-10T06:36:15.214Z,19.79
2018-09-10T06:37:15.346Z,19.75
2018-09-10T06:38:15.257Z,19.78
2018-09-10T06:39:15.288Z,19.65
2018-09-10T06:40:15.314Z,19.55
2018-09-10T06:41:15.333Z,19.47
2018-09-10T06:42:15.361Z,19.23
2018-09-10T06:43:15.386Z,19.15
2018-09-10T06:44:15.407Z,19.12
2018-09-10T06:45:15.433Z,18.94
2018-09-10T06:46:15.449Z,18.93
2018-09-10T06:47:15.483Z,18.90
2018-09-10T06:48:15.504Z,18.89
2018-09-10T06:49:15.523Z,18.91
2018-09-10T06:50:15.552Z,18.91
2018-09-10T06:51:15.573Z,18.89
2018-09-10T06:52:15.601Z,18.90
2018-09-10T06:53:15.643Z,18.94
2018-09-10T06:54:15.643Z,18.93
2018-09-10T06:55:15.670Z,18.97
2018-09-10T06:56:15.685Z,19.01
2018-09-10T06:57:15.715Z,19.09
2018-09-10T06:58:15.731Z,19.12
2018-09-10T06:59:15.757Z,19.12
2018-09-10T07:00:15.856Z,19.23
2018-09-10T07:01:15.809Z,19.21
2018-09-10T07:02:15.840Z,19.23
2018-09-10T07:03:15.852Z,19.40
2018-09-10T07:04:15.875Z,19.35
2018-09-10T07:05:15.897Z,19.42
2018-09-10T07:06:15.930Z,19.46
2018-09-10T07:07:15.948Z,19.43
2018-09-10T07:08:15.969Z,19.45
2018-09-10T07:09:15.991Z,19.50
2018-09-10T07:10:16.011Z,19.52
2018-09-10T07:11:16.037Z,19.64
2018-09-10T07:12:16.062Z,19.71
2018-09-10T07:13:16.146Z,19.70
2018-09-10T07:14:16.108Z,19.79
2018-09-10T07:15:16.132Z,19.78
2018-09-10T07:16:16.153Z,19.68
2018-09-10T07:17:16.209Z,19.72
2018-09-10T07:18:16.201Z,19.67
2018-09-10T07:19:16.228Z,19.64
2018-09-10T07:20:16.250Z,19.52
2018-09-10T07:21:16.271Z,19.62
2018-09-10T07:22:16.303Z,19.62
2018-09-10T07:23:16.321Z,19.57
2018-09-10T07:24:16.351Z,19.47
2018-09-10T07:25:16.366Z,19.58
2018-09-10T07:26:16.390Z,19.57
2018-09-10T07:27:16.409Z,19.60
2018-09-10T07:28:16.437Z,19.65
2018-09-10T07:29:16.455Z,19.67
2018-09-10T07:30:16.491Z,19.62
2018-09-10T07:31:19.129Z,19.57
2018-09-10T07:32:16.533Z,19.65
2018-09-10T07:33:16.562Z,19.58
2018-09-10T07:34:19.209Z,19.58
2018-09-10T07:35:16.607Z,19.57
2018-09-10T07:36:16.639Z,19.58
2018-09-10T07:37:16.661Z,19.61
2018-09-10T07:38:16.676Z,19.50
2018-09-10T07:39:16.701Z,19.57
2018-09-10T07:40:16.741Z,19.64
2018-09-10T07:41:16.761Z,19.68
2018-09-10T07:42:16.771Z,19.71
2018-09-10T07:43:16.821Z,19.67
2018-09-10T07:44:16.872Z,19.67
2018-09-10T07:46:16.865Z,19.72
2018-09-10T07:47:16.892Z,19.83
2018-09-10T07:48:16.909Z,20.04
2018-09-10T07:49:16.937Z,20.05
2018-09-10T07:50:16.968Z,20.12
2018-09-10T07:51:16.991Z,20.23
2018-09-10T07:52:17.014Z,20.15
2018-09-10T07:53:17.044Z,20.26
2018-09-10T07:54:17.061Z,20.19
2018-09-10T07:55:17.093Z,20.27
2018-09-10T07:56:17.109Z,20.22
2018-09-10T07:57:17.132Z,20.20
2018-09-10T07:58:17.159Z,20.26
2018-09-10T07:59:17.175Z,20.23
2018-09-10T08:00:17.201Z,20.15
2018-09-10T08:01:17.229Z,20.19
2018-09-10T08:02:17.249Z,20.19
2018-09-10T08:03:17.282Z,20.20
2018-09-10T08:04:17.298Z,20.26
2018-09-10T08:05:17.325Z,20.26
2018-09-10T08:06:17.347Z,20.20
2018-09-10T08:07:17.370Z,20.15
2018-09-10T08:08:17.391Z,20.13
2018-09-10T08:09:17.535Z,20.20
2018-09-10T08:10:17.439Z,20.22
2018-09-10T08:11:17.462Z,20.30
2018-09-10T08:12:17.487Z,20.37
2018-09-10T08:13:17.517Z,20.48
2018-09-10T08:14:17.534Z,20.54
2018-09-10T08:15:17.565Z,20.53
2018-09-10T08:16:17.586Z,20.63
2018-09-10T08:17:17.613Z,20.58
2018-09-10T08:18:17.641Z,20.66
2018-09-10T08:19:17.659Z,20.53
2018-09-10T08:20:17.680Z,20.54
2018-09-10T08:21:17.705Z,20.51
2018-09-10T08:22:17.731Z,20.68
2018-09-10T08:23:17.748Z,20.82
2018-09-10T08:24:17.841Z,20.93
2018-09-10T08:25:17.819Z,21.05
2018-09-10T08:26:17.886Z,21.03
2018-09-10T08:27:17.845Z,21.05
2018-09-10T08:28:17.874Z,21.01
2018-09-10T08:29:17.897Z,21.09
2018-09-10T08:30:17.955Z,21.19
2018-09-10T08:31:17.948Z,20.94
2018-09-10T08:32:17.972Z,20.83
2018-09-10T08:33:17.996Z,20.76
2018-09-10T08:34:18.018Z,20.58
2018-09-10T08:35:18.050Z,20.44
2018-09-10T08:36:18.070Z,20.46
2018-09-10T08:37:18.092Z,20.54
2018-09-10T08:38:18.119Z,20.60
2018-09-10T08:39:18.157Z,20.73
2018-09-10T08:40:18.173Z,20.78
2018-09-10T08:41:18.187Z,20.87
2018-09-10T08:42:18.221Z,20.90
2018-09-10T08:43:18.239Z,20.81
2018-09-10T08:44:18.279Z,20.90
2018-09-10T08:45:18.294Z,20.96
2018-09-10T08:46:18.316Z,20.98
2018-09-10T08:47:18.339Z,21.03
2018-09-10T08:48:18.427Z,20.97
2018-09-10T08:49:18.383Z,20.96
2018-09-10T08:50:18.413Z,21.09
2018-09-10T08:51:18.433Z,21.16
2018-09-10T08:52:18.457Z,21.08
2018-09-10T08:53:18.481Z,21.11
2018-09-10T08:54:18.817Z,21.16
2018-09-10T08:55:18.648Z,21.08
2018-09-10T08:56:18.738Z,21.01
2018-09-10T08:57:18.582Z,20.94
2018-09-10T08:58:18.608Z,21.15
2018-09-10T08:59:18.635Z,20.94
2018-09-10T09:00:18.746Z,20.91
2018-09-10T09:01:18.693Z,21.03
2018-09-10T09:02:18.704Z,21.08
2018-09-10T09:03:18.731Z,21.08
2018-09-10T09:04:18.749Z,21.12
2018-09-10T09:05:18.776Z,21.11
2018-09-10T09:06:18.822Z,21.18
2018-09-10T09:07:18.834Z,21.28
2018-09-10T09:08:18.861Z,21.36
2018-09-10T09:09:18.877Z,21.37
2018-09-10T09:10:18.908Z,21.55
2018-09-10T09:11:18.927Z,21.79
2018-09-10T09:12:18.947Z,21.82
2018-09-10T09:13:18.979Z,21.86
2018-09-10T09:14:18.999Z,21.89
2018-09-10T09:15:19.039Z,22.01
2018-09-10T09:16:19.053Z,21.91
2018-09-10T09:17:19.083Z,22.06
2018-09-10T09:18:19.098Z,21.89
2018-09-10T09:19:19.126Z,21.89
2018-09-10T09:20:19.154Z,22.04
2018-09-10T09:21:19.176Z,22.02
2018-09-10T09:22:19.200Z,21.86
2018-09-10T09:23:19.243Z,21.86
2018-09-10T09:24:19.254Z,21.94
2018-09-10T09:25:19.276Z,22.01
2018-09-10T09:26:19.296Z,22.14
2018-09-10T09:27:19.359Z,22.27
2018-09-10T09:28:19.353Z,22.04
2018-09-10T09:29:19.372Z,21.93
2018-09-10T09:30:19.482Z,21.91
2018-09-10T09:31:19.426Z,22.04
2018-09-10T09:32:19.452Z,22.09
2018-09-10T09:33:19.482Z,22.19
2018-09-10T09:34:19.502Z,22.19
2018-09-10T09:35:19.524Z,22.17
2018-09-10T09:36:19.579Z,22.12
2018-09-10T09:37:19.576Z,22.05
2018-09-10T09:38:19.602Z,22.05
2018-09-10T09:39:19.632Z,22.17
2018-09-10T09:40:19.656Z,22.12
2018-09-10T09:41:19.683Z,22.20
2018-09-10T09:42:19.708Z,22.19
2018-09-10T09:43:19.740Z,22.21
2018-09-10T09:44:19.757Z,22.31
2018-09-10T09:45:19.784Z,22.31
2018-09-10T09:46:19.807Z,22.36
2018-09-10T09:47:19.828Z,22.41
2018-09-10T09:48:19.868Z,22.60
2018-09-10T09:49:19.886Z,22.56
2018-09-10T09:50:19.914Z,22.49
2018-09-10T09:51:19.962Z,22.44
2018-09-10T09:54:20.011Z,22.36
2018-09-10T09:55:20.040Z,22.44
2018-09-10T10:00:49.682Z,22.57
2018-09-10T10:12:36.944Z,21.74
2018-09-10T10:35:38.839Z,22.30
2018-09-10T10:51:17.634Z,23.92
2018-09-10T10:52:17.656Z,24.05
2018-09-10T10:53:17.691Z,23.74
2018-09-10T10:54:17.712Z,23.57
2018-09-10T10:55:17.744Z,23.82
2018-09-10T10:56:17.769Z,24.18
2018-09-10T10:57:17.801Z,23.89
2018-09-10T10:58:17.829Z,23.75
2018-09-10T10:59:17.854Z,23.69
2018-09-10T11:00:17.881Z,23.81
2018-09-10T11:01:17.909Z,23.87
2018-09-10T11:02:17.937Z,24.05
2018-09-10T11:04:18.083Z,26.39
2018-09-10T11:05:20.639Z,26.47
2018-09-10T11:06:18.043Z,26.35
2018-09-10T11:07:18.072Z,27.12
2018-09-10T11:08:18.105Z,26.39
2018-09-10T11:09:18.133Z,25.91
2018-09-10T11:11:18.188Z,25.49
2018-09-10T11:12:18.220Z,26.98
2018-09-10T11:13:18.250Z,26.44
2018-09-10T11:14:18.276Z,25.61
2018-09-10T11:15:18.310Z,26.72
2018-09-10T11:16:18.340Z,27.53
2018-09-10T11:17:20.993Z,27.72
2018-09-10T11:18:18.405Z,26.39
2018-09-10T11:19:18.427Z,25.26
2018-09-10T11:20:18.454Z,24.70
2018-09-10T11:21:18.491Z,25.74
2018-09-10T11:22:18.552Z,26.86
2018-09-10T11:23:18.554Z,27.03
2018-09-10T11:24:18.583Z,26.24
2018-09-10T11:25:18.610Z,27.72
2018-09-10T11:26:18.642Z,28.45
2018-09-10T11:27:18.677Z,29.60
2018-09-10T11:28:18.705Z,29.86
2018-09-10T11:29:18.734Z,29.41
2018-09-10T11:30:18.762Z,28.61
2018-09-10T11:31:18.801Z,29.41
2018-09-10T11:32:18.832Z,29.85
2018-09-10T11:33:18.859Z,28.70
2018-09-10T11:34:18.892Z,28.23
2018-09-10T11:35:18.922Z,28.60
2018-09-10T11:36:18.962Z,27.77
2018-09-10T11:37:18.986Z,28.28
2018-09-10T11:38:20.033Z,28.58
2018-09-10T11:39:19.056Z,28.92
2018-09-10T11:40:19.094Z,29.11
2018-09-10T11:41:19.116Z,28.67
2018-09-10T11:42:19.355Z,28.24
2018-09-10T11:43:19.187Z,27.88
2018-09-10T11:44:19.215Z,27.27
2018-09-10T11:45:22.676Z,26.36
2018-09-10T11:46:20.495Z,26.08
2018-09-10T11:47:19.305Z,27.21
2018-09-10T11:48:21.955Z,26.87
2018-09-10T11:49:20.580Z,26.17
2018-09-10T11:50:19.399Z,25.39
2018-09-10T11:51:19.440Z,25.02
2018-09-10T11:52:23.502Z,24.70
2018-09-10T11:54:47.338Z,25.54
2018-09-10T11:55:47.448Z,26.79
2018-09-10T11:56:47.387Z,27.55
2018-09-10T11:57:47.421Z,28.21
2018-09-10T11:58:47.456Z,28.62
2018-09-10T11:59:47.485Z,28.60
2018-09-10T12:00:47.525Z,28.57
2018-09-10T12:01:47.607Z,28.09
2018-09-10T12:02:47.581Z,28.83
2018-09-10T12:03:47.610Z,28.48
2018-09-10T12:04:47.646Z,28.61
2018-09-10T12:05:47.673Z,28.79
2018-09-10T12:06:47.704Z,28.09
2018-09-10T12:11:26.255Z,26.47
2018-09-10T12:13:08.837Z,26.39
2018-09-10T12:14:08.869Z,26.28
2018-09-10T12:15:08.901Z,26.50
2018-09-10T12:16:56.499Z,27.76
2018-09-10T12:29:28.899Z,25.54
2018-09-10T12:30:28.939Z,25.64
2018-09-10T12:31:29.769Z,25.78
2018-09-10T12:32:29.040Z,25.17
2018-09-10T12:33:29.018Z,24.98
2018-09-10T12:34:29.061Z,24.79
2018-09-10T12:35:29.079Z,24.84
2018-09-10T12:36:29.112Z,25.12
2018-09-10T12:37:29.138Z,25.14
2018-09-10T12:38:29.166Z,25.12
2018-09-10T12:39:29.210Z,25.45
2018-09-10T12:40:29.228Z,25.49
2018-09-10T12:41:29.254Z,25.51
2018-09-10T12:42:29.286Z,25.45
2018-09-10T12:43:29.317Z,25.54
2018-09-10T12:44:29.352Z,25.48
2018-09-10T12:45:29.374Z,25.67
2018-09-10T12:46:29.473Z,25.60
2018-09-10T12:47:29.436Z,25.49
2018-09-10T12:48:29.466Z,25.31
2018-09-10T12:49:29.492Z,25.22
2018-09-10T12:50:29.529Z,25.05
2018-09-10T12:51:29.556Z,25.05
2018-09-10T12:52:29.588Z,25.02
2018-09-10T12:53:29.613Z,24.68
2018-09-10T12:54:29.643Z,24.64
2018-09-10T12:55:29.679Z,24.39
2018-09-10T12:56:29.695Z,24.14
2018-09-10T12:57:29.744Z,23.84
2018-09-10T12:58:29.758Z,23.69
2018-09-10T12:59:29.787Z,23.72
2018-09-10T13:00:29.817Z,23.63
2018-09-10T13:01:29.843Z,23.68
2018-09-10T13:02:29.868Z,23.67
2018-09-10T13:03:29.899Z,23.68
2018-09-10T13:04:29.934Z,23.71
2018-09-10T13:05:29.959Z,23.72
2018-09-10T13:06:29.980Z,23.54
2018-09-10T13:07:30.009Z,23.45
2018-09-10T13:08:30.043Z,23.34
2018-09-10T13:09:30.071Z,23.31
2018-09-10T13:10:30.122Z,23.34
2018-09-10T13:11:30.131Z,23.44
2018-09-10T13:12:30.148Z,23.32
2018-09-10T13:13:30.178Z,23.29
2018-09-10T13:14:30.209Z,23.26
2018-09-10T13:15:30.233Z,23.53
2018-09-10T13:16:30.260Z,23.57
2018-09-10T13:17:30.284Z,23.56
2018-09-10T13:18:30.316Z,23.56
2018-09-10T13:19:30.339Z,23.56
2018-09-10T13:20:30.374Z,23.67
2018-09-10T13:21:30.400Z,23.78
2018-09-10T13:22:30.424Z,23.89
2018-09-10T13:23:30.451Z,23.89
2018-09-10T13:24:30.475Z,24.00
2018-09-10T13:25:30.512Z,24.24
2018-09-10T13:26:30.538Z,24.26
2018-09-10T13:27:30.577Z,24.68
2018-09-10T13:28:30.593Z,24.83
2018-09-10T13:29:30.615Z,24.82
2018-09-10T13:30:30.643Z,24.93
2018-09-10T13:31:30.669Z,25.14
2018-09-10T13:32:30.709Z,25.14
2018-09-10T13:33:30.747Z,25.17
2018-09-10T13:34:30.757Z,25.23
2018-09-10T13:35:30.789Z,25.17
2018-09-10T13:36:30.847Z,25.36
2018-09-10T13:37:30.853Z,25.53
2018-09-10T13:38:30.865Z,25.83
2018-09-10T13:39:32.321Z,25.83
2018-09-10T13:40:30.929Z,25.78
2018-09-10T13:42:30.987Z,25.64
2018-09-10T13:43:31.012Z,25.91
2018-09-10T13:45:33.840Z,25.29
2018-09-10T13:46:33.664Z,25.26
2018-09-10T13:47:33.697Z,25.31
2018-09-10T13:48:33.726Z,25.07
2018-09-10T13:49:33.756Z,25.07
2018-09-10T13:50:34.117Z,24.80
2018-09-10T13:52:33.844Z,24.59
2018-09-10T13:53:33.919Z,24.46
2018-09-10T13:54:33.894Z,24.26
2018-09-10T13:55:33.931Z,24.05
2018-09-10T13:56:33.955Z,23.82
2018-09-10T13:57:33.984Z,23.77
2018-09-10T13:58:34.009Z,23.63
2018-09-10T13:59:34.067Z,23.44
2018-09-10T14:01:34.110Z,23.12
2018-09-10T14:02:34.551Z,23.01
2018-09-10T14:03:34.144Z,23.12
2018-09-10T14:04:34.176Z,23.03
2018-09-10T14:05:34.209Z,23.04
2018-09-10T14:06:34.233Z,23.01
2018-09-10T14:07:34.261Z,23.06
2018-09-10T14:08:34.287Z,23.04
2018-09-10T14:09:34.318Z,23.09
2018-09-10T14:10:34.406Z,22.97
2018-09-10T14:11:34.366Z,22.94